sensor_id;sensor_type;location;lat;lon;timestamp;pressure;altitude;pressure_sealevel;temperature
71428;BMP280;59246;59.102;37.928;2022-10-16T00:01:34;100746.41;;;10.01
71428;BMP280;59246;59.102;37.928;2022-10-16T00:04:00;100747.19;;;10.02
71428;BMP280;59246;59.102;37.928;2022-10-16T00:06:26;100747.19;;;10.02
71428;BMP280;59246;59.102;37.928;2022-10-16T00:08:53;100750.09;;;10.00
71428;BMP280;59246;59.102;37.928;2022-10-16T00:11:22;100747.19;;;10.02
71428;BMP280;59246;59.102;37.928;2022-10-16T00:13:49;100753.56;;;10.01
71428;BMP280;59246;59.102;37.928;2022-10-16T00:16:15;100758.31;;;9.99
71428;BMP280;59246;59.102;37.928;2022-10-16T00:18:41;100757.78;;;9.97
71428;BMP280;59246;59.102;37.928;2022-10-16T00:21:10;100752.97;;;9.94
71428;BMP280;59246;59.102;37.928;2022-10-16T00:23:56;100759.31;;;9.92
71428;BMP280;59246;59.102;37.928;2022-10-16T00:26:21;100758.78;;;9.90
71428;BMP280;59246;59.102;37.928;2022-10-16T00:28:47;100764.88;;;9.91
71428;BMP280;59246;59.102;37.928;2022-10-16T00:31:13;100756.91;;;9.91
71428;BMP280;59246;59.102;37.928;2022-10-16T00:33:40;100757.94;;;9.90
71428;BMP280;59246;59.102;37.928;2022-10-16T00:36:06;100764.88;;;9.91
71428;BMP280;59246;59.102;37.928;2022-10-16T00:38:32;100756.91;;;9.91
71428;BMP280;59246;59.102;37.928;2022-10-16T00:40:57;100759.31;;;9.92
71428;BMP280;59246;59.102;37.928;2022-10-16T00:43:40;100763.56;;;9.94
71428;BMP280;59246;59.102;37.928;2022-10-16T00:46:13;100760.59;;;9.90
71428;BMP280;59246;59.102;37.928;2022-10-16T00:48:40;100765.31;;;9.83
71428;BMP280;59246;59.102;37.928;2022-10-16T00:51:06;100760.78;;;9.78
71428;BMP280;59246;59.102;37.928;2022-10-16T00:53:32;100762.56;;;9.72
71428;BMP280;59246;59.102;37.928;2022-10-16T00:55:58;100755.66;;;9.71
71428;BMP280;59246;59.102;37.928;2022-10-16T00:58:23;100769.94;;;9.70
71428;BMP280;59246;59.102;37.928;2022-10-16T01:00:49;100772.88;;;9.69
71428;BMP280;59246;59.102;37.928;2022-10-16T01:03:31;100772.06;;;9.68
71428;BMP280;59246;59.102;37.928;2022-10-16T01:08:42;100764.88;;;9.64
71428;BMP280;59246;59.102;37.928;2022-10-16T01:11:16;100774.66;;;9.63
71428;BMP280;59246;59.102;37.928;2022-10-16T01:13:43;100768.00;;;9.61
71428;BMP280;59246;59.102;37.928;2022-10-16T01:18:59;100770.09;;;9.59
71428;BMP280;59246;59.102;37.928;2022-10-16T01:21:28;100768.53;;;9.58
71428;BMP280;59246;59.102;37.928;2022-10-16T01:24:03;100766.91;;;9.57
71428;BMP280;59246;59.102;37.928;2022-10-16T01:29:09;100762.09;;;9.53
71428;BMP280;59246;59.102;37.928;2022-10-16T01:31:37;100759.19;;;9.55
71428;BMP280;59246;59.102;37.928;2022-10-16T01:34:10;100766.59;;;9.53
71428;BMP280;59246;59.102;37.928;2022-10-16T01:36:40;100773.44;;;9.49
71428;BMP280;59246;59.102;37.928;2022-10-16T01:39:10;100768.63;;;9.46
71428;BMP280;59246;59.102;37.928;2022-10-16T01:41:40;100771.53;;;9.44
71428;BMP280;59246;59.102;37.928;2022-10-16T01:44:11;100759.31;;;9.43
71428;BMP280;59246;59.102;37.928;2022-10-16T01:46:39;100769.41;;;9.41
71428;BMP280;59246;59.102;37.928;2022-10-16T01:49:04;100767.22;;;9.38
71428;BMP280;59246;59.102;37.928;2022-10-16T01:51:31;100774.34;;;9.38
71428;BMP280;59246;59.102;37.928;2022-10-16T01:53:58;100770.38;;;9.35
71428;BMP280;59246;59.102;37.928;2022-10-16T01:56:24;100774.28;;;9.32
71428;BMP280;59246;59.102;37.928;2022-10-16T01:59:00;100777.47;;;9.29
71428;BMP280;59246;59.102;37.928;2022-10-16T02:01:28;100774.22;;;9.27
71428;BMP280;59246;59.102;37.928;2022-10-16T02:03:56;100771.03;;;9.25
71428;BMP280;59246;59.102;37.928;2022-10-16T02:06:23;100771.53;;;9.22
71428;BMP280;59246;59.102;37.928;2022-10-16T02:08:50;100780.22;;;9.18
71428;BMP280;59246;59.102;37.928;2022-10-16T02:11:15;100779.09;;;9.13
71428;BMP280;59246;59.102;37.928;2022-10-16T02:13:45;100783.84;;;9.11
71428;BMP280;59246;59.102;37.928;2022-10-16T02:16:12;100787.47;;;9.05
71428;BMP280;59246;59.102;37.928;2022-10-16T02:18:38;100779.44;;;9.00
71428;BMP280;59246;59.102;37.928;2022-10-16T02:21:11;100781.19;;;8.94
71428;BMP280;59246;59.102;37.928;2022-10-16T02:26:15;100779.22;;;8.85
71428;BMP280;59246;59.102;37.928;2022-10-16T02:28:47;100785.03;;;8.82
71428;BMP280;59246;59.102;37.928;2022-10-16T02:31:15;100782.25;;;8.76
71428;BMP280;59246;59.102;37.928;2022-10-16T02:33:42;100784.34;;;8.74
71428;BMP280;59246;59.102;37.928;2022-10-16T02:36:09;100779.00;;;8.69
71428;BMP280;59246;59.102;37.928;2022-10-16T02:38:35;100785.91;;;8.70
71428;BMP280;59246;59.102;37.928;2022-10-16T02:41:01;100796.94;;;8.67
71428;BMP280;59246;59.102;37.928;2022-10-16T02:43:27;100790.78;;;8.62
71428;BMP280;59246;59.102;37.928;2022-10-16T02:45:52;100785.19;;;8.58
71428;BMP280;59246;59.102;37.928;2022-10-16T02:48:18;100790.69;;;8.56
71428;BMP280;59246;59.102;37.928;2022-10-16T02:50:43;100803.84;;;8.51
71428;BMP280;59246;59.102;37.928;2022-10-16T02:53:09;100797.44;;;8.47
71428;BMP280;59246;59.102;37.928;2022-10-16T02:55:34;100806.09;;;8.43
71428;BMP280;59246;59.102;37.928;2022-10-16T02:58:00;100793.34;;;8.39
71428;BMP280;59246;59.102;37.928;2022-10-16T03:00:25;100803.34;;;8.37
71428;BMP280;59246;59.102;37.928;2022-10-16T03:02:50;100809.91;;;8.35
71428;BMP280;59246;59.102;37.928;2022-10-16T03:05:16;100802.69;;;8.30
71428;BMP280;59246;59.102;37.928;2022-10-16T03:07:41;100805.81;;;8.27
71428;BMP280;59246;59.102;37.928;2022-10-16T03:10:07;100808.69;;;8.26
71428;BMP280;59246;59.102;37.928;2022-10-16T03:12:33;100807.31;;;8.23
71428;BMP280;59246;59.102;37.928;2022-10-16T03:14:58;100804.13;;;8.21
71428;BMP280;59246;59.102;37.928;2022-10-16T03:17:24;100803.81;;;8.17
71428;BMP280;59246;59.102;37.928;2022-10-16T03:19:49;100810.34;;;8.15
71428;BMP280;59246;59.102;37.928;2022-10-16T03:22:15;100800.25;;;8.12
71428;BMP280;59246;59.102;37.928;2022-10-16T03:24:40;100812.13;;;8.09
71428;BMP280;59246;59.102;37.928;2022-10-16T03:27:06;100808.09;;;8.07
71428;BMP280;59246;59.102;37.928;2022-10-16T03:29:31;100810.41;;;8.03
71428;BMP280;59246;59.102;37.928;2022-10-16T03:32:00;100812.72;;;7.99
71428;BMP280;59246;59.102;37.928;2022-10-16T03:34:25;100814.78;;;7.97
71428;BMP280;59246;59.102;37.928;2022-10-16T03:36:51;100812.63;;;7.94
71428;BMP280;59246;59.102;37.928;2022-10-16T03:39:17;100818.38;;;7.91
71428;BMP280;59246;59.102;37.928;2022-10-16T03:41:42;100815.44;;;7.88
71428;BMP280;59246;59.102;37.928;2022-10-16T03:44:07;100817.94;;;7.82
71428;BMP280;59246;59.102;37.928;2022-10-16T03:46:33;100816.31;;;7.81
71428;BMP280;59246;59.102;37.928;2022-10-16T03:48:58;100820.81;;;7.81
71428;BMP280;59246;59.102;37.928;2022-10-16T03:51:24;100817.59;;;7.79
71428;BMP280;59246;59.102;37.928;2022-10-16T03:53:49;100810.72;;;7.78
71428;BMP280;59246;59.102;37.928;2022-10-16T03:56:15;100815.44;;;7.76
71428;BMP280;59246;59.102;37.928;2022-10-16T03:58:40;100818.31;;;7.74
71428;BMP280;59246;59.102;37.928;2022-10-16T04:01:05;100816.94;;;7.72
71428;BMP280;59246;59.102;37.928;2022-10-16T04:03:31;100812.91;;;7.69
71428;BMP280;59246;59.102;37.928;2022-10-16T04:05:56;100818.19;;;7.69
71428;BMP280;59246;59.102;37.928;2022-10-16T04:08:22;100815.78;;;7.68
71428;BMP280;59246;59.102;37.928;2022-10-16T04:10:48;100821.28;;;7.66
71428;BMP280;59246;59.102;37.928;2022-10-16T04:13:14;100817.28;;;7.63
71428;BMP280;59246;59.102;37.928;2022-10-16T04:15:40;100817.75;;;7.60
71428;BMP280;59246;59.102;37.928;2022-10-16T04:18:06;100818.81;;;7.59
71428;BMP280;59246;59.102;37.928;2022-10-16T04:20:31;100820.06;;;7.57
71428;BMP280;59246;59.102;37.928;2022-10-16T04:22:57;100823.41;;;7.52
71428;BMP280;59246;59.102;37.928;2022-10-16T04:25:22;100829.72;;;7.51
71428;BMP280;59246;59.102;37.928;2022-10-16T04:27:48;100829.94;;;7.50
71428;BMP280;59246;59.102;37.928;2022-10-16T04:30:13;100827.31;;;7.50
71428;BMP280;59246;59.102;37.928;2022-10-16T04:32:39;100822.25;;;7.48
71428;BMP280;59246;59.102;37.928;2022-10-16T04:35:05;100823.28;;;7.47
71428;BMP280;59246;59.102;37.928;2022-10-16T04:37:30;100826.97;;;7.46
71428;BMP280;59246;59.102;37.928;2022-10-16T04:39:56;100820.66;;;7.47
71428;BMP280;59246;59.102;37.928;2022-10-16T04:42:21;100820.66;;;7.47
71428;BMP280;59246;59.102;37.928;2022-10-16T04:44:47;100822.25;;;7.48
71428;BMP280;59246;59.102;37.928;2022-10-16T04:47:13;100821.00;;;7.51
71428;BMP280;59246;59.102;37.928;2022-10-16T04:49:38;100819.16;;;7.51
71428;BMP280;59246;59.102;37.928;2022-10-16T04:52:04;100826.59;;;7.54
71428;BMP280;59246;59.102;37.928;2022-10-16T04:54:29;100822.94;;;7.55
71428;BMP280;59246;59.102;37.928;2022-10-16T04:56:55;100821.91;;;7.56
71428;BMP280;59246;59.102;37.928;2022-10-16T04:59:20;100832.25;;;7.58
71428;BMP280;59246;59.102;37.928;2022-10-16T05:01:46;100824.09;;;7.59
71428;BMP280;59246;59.102;37.928;2022-10-16T05:04:12;100825.44;;;7.62
71428;BMP280;59246;59.102;37.928;2022-10-16T05:06:38;100827.63;;;7.65
71428;BMP280;59246;59.102;37.928;2022-10-16T05:09:05;100821.56;;;7.64
71428;BMP280;59246;59.102;37.928;2022-10-16T05:11:31;100829.22;;;7.66
71428;BMP280;59246;59.102;37.928;2022-10-16T05:13:56;100832.22;;;7.70
71428;BMP280;59246;59.102;37.928;2022-10-16T05:16:22;100833.81;;;7.71
71428;BMP280;59246;59.102;37.928;2022-10-16T05:18:47;100834.97;;;7.75
71428;BMP280;59246;59.102;37.928;2022-10-16T05:21:13;100832.63;;;7.78
71428;BMP280;59246;59.102;37.928;2022-10-16T05:23:38;100824.25;;;7.81
71428;BMP280;59246;59.102;37.928;2022-10-16T05:26:03;100832.31;;;7.87
71428;BMP280;59246;59.102;37.928;2022-10-16T05:28:29;100834.75;;;8.05
71428;BMP280;59246;59.102;37.928;2022-10-16T05:30:55;100831.91;;;8.52
71428;BMP280;59246;59.102;37.928;2022-10-16T05:33:21;100835.75;;;8.78
71428;BMP280;59246;59.102;37.928;2022-10-16T05:35:47;100841.09;;;8.84
71428;BMP280;59246;59.102;37.928;2022-10-16T05:38:12;100841.69;;;8.69
71428;BMP280;59246;59.102;37.928;2022-10-16T05:40:38;100843.88;;;8.43
71428;BMP280;59246;59.102;37.928;2022-10-16T05:43:03;100839.72;;;8.30
71428;BMP280;59246;59.102;37.928;2022-10-16T05:45:29;100844.66;;;8.27
71428;BMP280;59246;59.102;37.928;2022-10-16T05:47:54;100850.66;;;8.22
71428;BMP280;59246;59.102;37.928;2022-10-16T05:50:20;100855.13;;;8.21
71428;BMP280;59246;59.102;37.928;2022-10-16T05:52:48;100844.25;;;8.18
71428;BMP280;59246;59.102;37.928;2022-10-16T05:55:13;100845.28;;;8.17
71428;BMP280;59246;59.102;37.928;2022-10-16T05:57:39;100846.97;;;8.23
71428;BMP280;59246;59.102;37.928;2022-10-16T06:00:05;100839.84;;;8.24
71428;BMP280;59246;59.102;37.928;2022-10-16T06:02:30;100843.53;;;8.23
71428;BMP280;59246;59.102;37.928;2022-10-16T06:04:56;100842.25;;;8.25
71428;BMP280;59246;59.102;37.928;2022-10-16T06:07:21;100846.28;;;8.28
71428;BMP280;59246;59.102;37.928;2022-10-16T06:09:50;100847.09;;;8.28
71428;BMP280;59246;59.102;37.928;2022-10-16T06:12:16;100848.56;;;8.53
71428;BMP280;59246;59.102;37.928;2022-10-16T06:14:41;100856.63;;;8.92
71428;BMP280;59246;59.102;37.928;2022-10-16T06:17:07;100851.38;;;8.97
71428;BMP280;59246;59.102;37.928;2022-10-16T06:19:32;100857.09;;;8.89
71428;BMP280;59246;59.102;37.928;2022-10-16T06:21:58;100851.06;;;8.76
71428;BMP280;59246;59.102;37.928;2022-10-16T06:24:24;100857.41;;;8.75
71428;BMP280;59246;59.102;37.928;2022-10-16T06:26:50;100854.69;;;8.70
71428;BMP280;59246;59.102;37.928;2022-10-16T06:29:15;100854.69;;;8.70
71428;BMP280;59246;59.102;37.928;2022-10-16T06:31:41;100860.84;;;8.76
71428;BMP280;59246;59.102;37.928;2022-10-16T06:34:08;100866.44;;;8.80
71428;BMP280;59246;59.102;37.928;2022-10-16T06:36:35;100863.00;;;8.79
71428;BMP280;59246;59.102;37.928;2022-10-16T06:39:01;100860.13;;;8.81
71428;BMP280;59246;59.102;37.928;2022-10-16T06:41:27;100868.38;;;8.84
71428;BMP280;59246;59.102;37.928;2022-10-16T06:43:52;100860.78;;;8.88
71428;BMP280;59246;59.102;37.928;2022-10-16T06:46:19;100861.09;;;8.91
71428;BMP280;59246;59.102;37.928;2022-10-16T06:48:45;100856.63;;;8.92
71428;BMP280;59246;59.102;37.928;2022-10-16T06:53:36;100858.84;;;9.00
71428;BMP280;59246;59.102;37.928;2022-10-16T06:58:34;100873.91;;;9.16
71428;BMP280;59246;59.102;37.928;2022-10-16T07:00:59;100872.16;;;9.22
71428;BMP280;59246;59.102;37.928;2022-10-16T07:03:25;100860.75;;;9.22
71428;BMP280;59246;59.102;37.928;2022-10-16T07:05:50;100861.84;;;9.26
71428;BMP280;59246;59.102;37.928;2022-10-16T07:08:15;100851.84;;;9.28
71428;BMP280;59246;59.102;37.928;2022-10-16T07:10:41;100848.38;;;9.27
71428;BMP280;59246;59.102;37.928;2022-10-16T07:13:06;100858.72;;;9.29
71428;BMP280;59246;59.102;37.928;2022-10-16T07:15:32;100858.97;;;9.27
71428;BMP280;59246;59.102;37.928;2022-10-16T07:17:58;100860.03;;;9.26
71428;BMP280;59246;59.102;37.928;2022-10-16T07:20:23;100866.06;;;9.22
71428;BMP280;59246;59.102;37.928;2022-10-16T07:22:49;100858.53;;;9.13
71428;BMP280;59246;59.102;37.928;2022-10-16T07:25:14;100852.09;;;9.09
71428;BMP280;59246;59.102;37.928;2022-10-16T07:27:40;100848.97;;;9.12
71428;BMP280;59246;59.102;37.928;2022-10-16T07:30:05;100853.09;;;9.25
71428;BMP280;59246;59.102;37.928;2022-10-16T07:32:31;100844.50;;;9.35
71428;BMP280;59246;59.102;37.928;2022-10-16T07:34:57;100844.88;;;9.44
71428;BMP280;59246;59.102;37.928;2022-10-16T07:37:22;100839.44;;;9.50
71428;BMP280;59246;59.102;37.928;2022-10-16T07:39:48;100845.88;;;9.60
71428;BMP280;59246;59.102;37.928;2022-10-16T07:42:13;100839.16;;;9.74
71428;BMP280;59246;59.102;37.928;2022-10-16T07:44:39;100840.13;;;9.90
71428;BMP280;59246;59.102;37.928;2022-10-16T07:47:05;100835.25;;;10.04
71428;BMP280;59246;59.102;37.928;2022-10-16T07:49:31;100838.28;;;10.18
71428;BMP280;59246;59.102;37.928;2022-10-16T07:51:56;100832.84;;;10.29
71428;BMP280;59246;59.102;37.928;2022-10-16T07:54:22;100842.22;;;10.42
71428;BMP280;59246;59.102;37.928;2022-10-16T07:56:47;100835.66;;;10.50
71428;BMP280;59246;59.102;37.928;2022-10-16T07:59:13;100830.59;;;10.48
71428;BMP280;59246;59.102;37.928;2022-10-16T08:01:38;100839.19;;;10.56
71428;BMP280;59246;59.102;37.928;2022-10-16T08:04:04;100847.94;;;10.56
71428;BMP280;59246;59.102;37.928;2022-10-16T08:06:30;100839.47;;;10.64
71428;BMP280;59246;59.102;37.928;2022-10-16T08:09:00;100841.13;;;10.71
71428;BMP280;59246;59.102;37.928;2022-10-16T08:11:25;100837.47;;;10.77
71428;BMP280;59246;59.102;37.928;2022-10-16T08:13:51;100838.03;;;10.84
71428;BMP280;59246;59.102;37.928;2022-10-16T08:16:16;100836.25;;;10.95
71428;BMP280;59246;59.102;37.928;2022-10-16T08:18:45;100836.00;;;11.01
71428;BMP280;59246;59.102;37.928;2022-10-16T08:21:15;100832.88;;;11.10
71428;BMP280;59246;59.102;37.928;2022-10-16T08:23:41;100821.19;;;11.11
71428;BMP280;59246;59.102;37.928;2022-10-16T08:26:07;100834.00;;;11.19
71428;BMP280;59246;59.102;37.928;2022-10-16T08:28:33;100830.28;;;11.20
71428;BMP280;59246;59.102;37.928;2022-10-16T08:31:06;100829.78;;;11.28
71428;BMP280;59246;59.102;37.928;2022-10-16T08:33:31;100835.13;;;11.33
71428;BMP280;59246;59.102;37.928;2022-10-16T08:35:57;100833.06;;;11.45
71428;BMP280;59246;59.102;37.928;2022-10-16T08:38:22;100835.22;;;11.64
71428;BMP280;59246;59.102;37.928;2022-10-16T08:40:48;100830.47;;;11.71
71428;BMP280;59246;59.102;37.928;2022-10-16T08:51:02;100823.78;;;11.63
71428;BMP280;59246;59.102;37.928;2022-10-16T08:53:30;100814.44;;;11.51
71428;BMP280;59246;59.102;37.928;2022-10-16T08:55:56;100813.91;;;11.43
71428;BMP280;59246;59.102;37.928;2022-10-16T08:58:27;100813.88;;;11.33
71428;BMP280;59246;59.102;37.928;2022-10-16T09:00:54;100813.84;;;11.28
71428;BMP280;59246;59.102;37.928;2022-10-16T09:13:40;100807.50;;;11.39
71428;BMP280;59246;59.102;37.928;2022-10-16T09:21:25;100791.22;;;11.25
71428;BMP280;59246;59.102;37.928;2022-10-16T09:23:51;100784.88;;;11.26
71428;BMP280;59246;59.102;37.928;2022-10-16T09:26:16;100774.53;;;11.30
71428;BMP280;59246;59.102;37.928;2022-10-16T09:28:44;100782.53;;;11.35
71428;BMP280;59246;59.102;37.928;2022-10-16T09:31:19;100775.63;;;11.39
71428;BMP280;59246;59.102;37.928;2022-10-16T09:33:47;100771.41;;;11.43
71428;BMP280;59246;59.102;37.928;2022-10-16T09:36:14;100763.69;;;11.47
71428;BMP280;59246;59.102;37.928;2022-10-16T09:38:40;100761.31;;;11.51
71428;BMP280;59246;59.102;37.928;2022-10-16T09:41:15;100769.03;;;11.57
71428;BMP280;59246;59.102;37.928;2022-10-16T09:43:49;100767.19;;;11.63
71428;BMP280;59246;59.102;37.928;2022-10-16T09:49:20;100762.13;;;11.72
71428;BMP280;59246;59.102;37.928;2022-10-16T09:51:46;100749.13;;;11.75
71428;BMP280;59246;59.102;37.928;2022-10-16T09:54:14;100757.34;;;11.79
71428;BMP280;59246;59.102;37.928;2022-10-16T09:56:39;100752.59;;;11.81
71428;BMP280;59246;59.102;37.928;2022-10-16T09:59:10;100747.25;;;11.86
71428;BMP280;59246;59.102;37.928;2022-10-16T10:01:37;100742.25;;;11.90
71428;BMP280;59246;59.102;37.928;2022-10-16T10:04:03;100751.00;;;11.95
71428;BMP280;59246;59.102;37.928;2022-10-16T10:06:51;100743.03;;;12.00
71428;BMP280;59246;59.102;37.928;2022-10-16T10:09:16;100748.06;;;12.07
71428;BMP280;59246;59.102;37.928;2022-10-16T10:11:50;100742.78;;;12.12
71428;BMP280;59246;59.102;37.928;2022-10-16T10:16:47;100746.47;;;12.21
71428;BMP280;59246;59.102;37.928;2022-10-16T10:19:23;100744.84;;;12.31
71428;BMP280;59246;59.102;37.928;2022-10-16T10:21:49;100740.59;;;12.40
71428;BMP280;59246;59.102;37.928;2022-10-16T10:24:16;100747.22;;;12.48
71428;BMP280;59246;59.102;37.928;2022-10-16T10:26:45;100731.50;;;12.61
71428;BMP280;59246;59.102;37.928;2022-10-16T10:29:27;100735.44;;;12.74
71428;BMP280;59246;59.102;37.928;2022-10-16T10:34:44;100739.56;;;13.06
71428;BMP280;59246;59.102;37.928;2022-10-16T10:45:27;100729.69;;;13.86
71428;BMP280;59246;59.102;37.928;2022-10-16T10:55:52;100738.19;;;14.89
71428;BMP280;59246;59.102;37.928;2022-10-16T10:58:23;100728.59;;;15.07
71428;BMP280;59246;59.102;37.928;2022-10-16T11:03:35;100734.47;;;15.42
71428;BMP280;59246;59.102;37.928;2022-10-16T11:06:07;100743.81;;;15.45
71428;BMP280;59246;59.102;37.928;2022-10-16T11:08:36;100736.19;;;15.38
71428;BMP280;59246;59.102;37.928;2022-10-16T11:11:04;100729.84;;;15.48
71428;BMP280;59246;59.102;37.928;2022-10-16T11:15:58;100729.72;;;15.72
71428;BMP280;59246;59.102;37.928;2022-10-16T11:18:33;100729.38;;;15.59
71428;BMP280;59246;59.102;37.928;2022-10-16T11:21:06;100733.06;;;15.50
71428;BMP280;59246;59.102;37.928;2022-10-16T11:23:36;100722.16;;;15.60
71428;BMP280;59246;59.102;37.928;2022-10-16T11:26:04;100725.84;;;15.64
71428;BMP280;59246;59.102;37.928;2022-10-16T11:28:35;100723.09;;;15.69
71428;BMP280;59246;59.102;37.928;2022-10-16T11:41:00;100717.78;;;16.38
71428;BMP280;59246;59.102;37.928;2022-10-16T11:43:40;100718.06;;;16.51
71428;BMP280;59246;59.102;37.928;2022-10-16T11:46:15;100720.34;;;16.57
71428;BMP280;59246;59.102;37.928;2022-10-16T11:48:45;100714.41;;;16.60
71428;BMP280;59246;59.102;37.928;2022-10-16T11:53:51;100711.03;;;16.55
71428;BMP280;59246;59.102;37.928;2022-10-16T11:56:19;100708.41;;;16.64
71428;BMP280;59246;59.102;37.928;2022-10-16T12:01:39;100701.03;;;16.83
71428;BMP280;59246;59.102;37.928;2022-10-16T12:04:11;100707.84;;;16.89
71428;BMP280;59246;59.102;37.928;2022-10-16T12:06:46;100707.44;;;16.96
71428;BMP280;59246;59.102;37.928;2022-10-16T12:09:47;100703.72;;;17.06
71428;BMP280;59246;59.102;37.928;2022-10-16T12:12:23;100706.09;;;17.07
71428;BMP280;59246;59.102;37.928;2022-10-16T12:14:59;100697.16;;;17.34
71428;BMP280;59246;59.102;37.928;2022-10-16T12:17:26;100699.31;;;18.78
71428;BMP280;59246;59.102;37.928;2022-10-16T12:19:59;100690.84;;;20.63
71428;BMP280;59246;59.102;37.928;2022-10-16T12:22:26;100684.94;;;21.89
71428;BMP280;59246;59.102;37.928;2022-10-16T12:24:52;100687.69;;;22.90
71428;BMP280;59246;59.102;37.928;2022-10-16T12:27:29;100678.78;;;23.72
71428;BMP280;59246;59.102;37.928;2022-10-16T12:30:04;100676.50;;;23.93
71428;BMP280;59246;59.102;37.928;2022-10-16T12:32:34;100687.69;;;24.31
71428;BMP280;59246;59.102;37.928;2022-10-16T12:35:00;100681.50;;;24.30
71428;BMP280;59246;59.102;37.928;2022-10-16T12:37:36;100684.06;;;24.89
71428;BMP280;59246;59.102;37.928;2022-10-16T12:42:40;100670.22;;;25.77
71428;BMP280;59246;59.102;37.928;2022-10-16T12:48:18;100665.53;;;25.44
71428;BMP280;59246;59.102;37.928;2022-10-16T12:50:44;100667.72;;;25.35
71428;BMP280;59246;59.102;37.928;2022-10-16T12:53:20;100671.53;;;25.30
71428;BMP280;59246;59.102;37.928;2022-10-16T13:00:58;100668.53;;;22.82
71428;BMP280;59246;59.102;37.928;2022-10-16T13:06:29;100670.53;;;21.24
71428;BMP280;59246;59.102;37.928;2022-10-16T13:09:02;100676.50;;;20.08
71428;BMP280;59246;59.102;37.928;2022-10-16T13:11:37;100668.84;;;19.21
71428;BMP280;59246;59.102;37.928;2022-10-16T13:14:09;100667.34;;;18.59
71428;BMP280;59246;59.102;37.928;2022-10-16T13:26:44;100658.56;;;16.40
71428;BMP280;59246;59.102;37.928;2022-10-16T13:29:12;100656.22;;;16.11
71428;BMP280;59246;59.102;37.928;2022-10-16T13:31:38;100650.25;;;16.14
71428;BMP280;59246;59.102;37.928;2022-10-16T13:34:04;100658.28;;;16.14
71428;BMP280;59246;59.102;37.928;2022-10-16T13:36:34;100646.59;;;15.82
71428;BMP280;59246;59.102;37.928;2022-10-16T13:39:10;100651.63;;;15.56
71428;BMP280;59246;59.102;37.928;2022-10-16T13:41:37;100658.25;;;15.26
71428;BMP280;59246;59.102;37.928;2022-10-16T13:44:03;100656.28;;;14.98
71428;BMP280;59246;59.102;37.928;2022-10-16T13:46:29;100661.63;;;14.79
71428;BMP280;59246;59.102;37.928;2022-10-16T13:51:27;100657.00;;;14.47
71428;BMP280;59246;59.102;37.928;2022-10-16T13:53:54;100645.91;;;14.35
71428;BMP280;59246;59.102;37.928;2022-10-16T13:56:21;100648.19;;;14.23
71428;BMP280;59246;59.102;37.928;2022-10-16T13:58:57;100653.47;;;14.09
71428;BMP280;59246;59.102;37.928;2022-10-16T14:01:23;100647.97;;;13.95
71428;BMP280;59246;59.102;37.928;2022-10-16T14:03:49;100646.47;;;13.84
71428;BMP280;59246;59.102;37.928;2022-10-16T14:06:16;100639.44;;;13.69
71428;BMP280;59246;59.102;37.928;2022-10-16T14:08:43;100636.63;;;13.55
71428;BMP280;59246;59.102;37.928;2022-10-16T14:11:09;100637.28;;;13.41
71428;BMP280;59246;59.102;37.928;2022-10-16T14:13:38;100634.41;;;13.33
71428;BMP280;59246;59.102;37.928;2022-10-16T14:16:06;100637.91;;;13.28
71428;BMP280;59246;59.102;37.928;2022-10-16T14:18:32;100630.47;;;13.25
71428;BMP280;59246;59.102;37.928;2022-10-16T14:21:04;100633.69;;;13.22
71428;BMP280;59246;59.102;37.928;2022-10-16T14:23:32;100633.44;;;13.18
71428;BMP280;59246;59.102;37.928;2022-10-16T14:26:39;100627.63;;;13.11
71428;BMP280;59246;59.102;37.928;2022-10-16T14:29:01;100627.69;;;13.01
71428;BMP280;59246;59.102;37.928;2022-10-16T14:31:31;100627.47;;;12.92
71428;BMP280;59246;59.102;37.928;2022-10-16T14:33:56;100631.28;;;12.81
71428;BMP280;59246;59.102;37.928;2022-10-16T14:36:22;100623.84;;;12.73
71428;BMP280;59246;59.102;37.928;2022-10-16T14:38:49;100633.47;;;12.63
71428;BMP280;59246;59.102;37.928;2022-10-16T14:41:20;100634.38;;;12.54
71428;BMP280;59246;59.102;37.928;2022-10-16T14:43:49;100626.13;;;12.45
71428;BMP280;59246;59.102;37.928;2022-10-16T14:46:16;100642.38;;;12.38
71428;BMP280;59246;59.102;37.928;2022-10-16T14:48:50;100640.53;;;12.34
71428;BMP280;59246;59.102;37.928;2022-10-16T14:51:16;100648.78;;;12.32
71428;BMP280;59246;59.102;37.928;2022-10-16T14:53:42;100648.78;;;12.32
71428;BMP280;59246;59.102;37.928;2022-10-16T14:56:18;100629.91;;;12.34
71428;BMP280;59246;59.102;37.928;2022-10-16T14:58:47;100642.16;;;12.35
71428;BMP280;59246;59.102;37.928;2022-10-16T15:01:13;100644.25;;;12.33
71428;BMP280;59246;59.102;37.928;2022-10-16T15:03:38;100648.53;;;12.29
71428;BMP280;59246;59.102;37.928;2022-10-16T15:06:08;100643.22;;;12.23
71428;BMP280;59246;59.102;37.928;2022-10-16T15:08:34;100631.84;;;12.18
71428;BMP280;59246;59.102;37.928;2022-10-16T15:11:00;100628.09;;;12.14
71428;BMP280;59246;59.102;37.928;2022-10-16T15:13:25;100633.16;;;12.10
71428;BMP280;59246;59.102;37.928;2022-10-16T15:15:51;100629.44;;;12.06
71428;BMP280;59246;59.102;37.928;2022-10-16T15:18:18;100626.00;;;12.00
71428;BMP280;59246;59.102;37.928;2022-10-16T15:20:49;100633.97;;;11.95
71428;BMP280;59246;59.102;37.928;2022-10-16T15:23:16;100627.09;;;11.94
71428;BMP280;59246;59.102;37.928;2022-10-16T15:25:43;100625.25;;;11.90
71428;BMP280;59246;59.102;37.928;2022-10-16T15:28:09;100625.25;;;11.90
71428;BMP280;59246;59.102;37.928;2022-10-16T15:30:35;100628.66;;;11.95
71428;BMP280;59246;59.102;37.928;2022-10-16T15:33:02;100611.09;;;11.99
71428;BMP280;59246;59.102;37.928;2022-10-16T15:35:28;100614.03;;;12.03
71428;BMP280;59246;59.102;37.928;2022-10-16T15:37:53;100619.09;;;12.04
71428;BMP280;59246;59.102;37.928;2022-10-16T15:40:20;100610.31;;;12.04
71428;BMP280;59246;59.102;37.928;2022-10-16T15:42:45;100615.63;;;12.04
71428;BMP280;59246;59.102;37.928;2022-10-16T15:45:14;100617.50;;;12.03